X  Sluiten METAR luchtvaart weer gegevens      EHAM Amsterdam Airport Schiphol
Temperatuur
17°C Temperatuur
10°C Dauwpunt
64% Vochtigheid



Wind
13 KM/U
8 MPH
4 M/S
7 KTS



270°
West
Huidig weer

Wat bewolking Wat bewolking
Luchtdruk 1014.92 (hPa) - 29.97 (inHg)
Zicht 6.2 (mijl) - 10 (km)
Vliegveld
Vliegveld code EHAM

Locatie : Amsterdam Airport Schiphol
Afstand: 2 (km)

Metar:
EHAM 291225Z 27007KT 230V320 9999 FEW025 17/10 Q1015 NOSIG

Tijd: 29-09-2020 14:25 CEST